createdAt,value
2018-08-16T00:00:45.924Z,0.00
2018-08-16T00:01:45.954Z,0.00
2018-08-16T00:03:38.898Z,0.00
2018-08-16T00:04:38.896Z,0.00
2018-08-16T00:06:31.845Z,0.00
2018-08-16T00:07:31.844Z,0.00
2018-08-16T00:09:24.760Z,0.00
2018-08-16T00:10:24.790Z,0.00
2018-08-16T00:12:17.725Z,0.00
2018-08-16T00:13:17.738Z,0.00
2018-08-16T00:15:10.646Z,0.00
2018-08-16T00:16:10.681Z,0.00
2018-08-16T00:18:03.616Z,0.00
2018-08-16T00:19:03.620Z,0.00
2018-08-16T00:20:56.553Z,0.00
2018-08-16T00:21:56.568Z,0.00
2018-08-16T00:23:49.646Z,0.00
2018-08-16T00:24:49.664Z,0.00
2018-08-16T00:26:42.591Z,0.00
2018-08-16T00:27:42.592Z,0.00
2018-08-16T00:29:35.511Z,0.00
2018-08-16T00:30:35.533Z,0.00
2018-08-16T00:32:28.469Z,0.00
2018-08-16T00:33:28.480Z,0.00
2018-08-16T00:35:21.390Z,0.00
2018-08-16T00:36:21.415Z,0.00
2018-08-16T00:38:14.353Z,0.00
2018-08-16T00:39:14.361Z,0.00
2018-08-16T00:41:07.277Z,0.00
2018-08-16T00:42:07.302Z,0.00
2018-08-16T00:44:00.238Z,0.00
2018-08-16T00:45:00.247Z,0.00
2018-08-16T00:46:53.182Z,0.00
2018-08-16T00:47:53.189Z,0.00
2018-08-16T00:49:46.376Z,0.00
2018-08-16T00:50:46.134Z,0.00
2018-08-16T00:52:39.063Z,0.00
2018-08-16T00:53:39.073Z,0.00
2018-08-16T00:55:31.981Z,0.00
2018-08-16T00:56:32.013Z,0.00
2018-08-16T00:58:24.942Z,0.00
2018-08-16T00:59:24.957Z,0.00
2018-08-16T01:01:17.864Z,0.00
2018-08-16T01:02:17.896Z,0.00
2018-08-16T01:04:10.838Z,0.00
2018-08-16T01:05:10.835Z,0.00
2018-08-16T01:07:03.778Z,0.00
2018-08-16T01:08:03.782Z,0.00
2018-08-16T01:09:56.694Z,0.00
2018-08-16T01:10:56.717Z,0.00
2018-08-16T01:12:49.654Z,0.00
2018-08-16T01:13:49.663Z,0.00
2018-08-16T01:15:42.576Z,0.00
2018-08-16T01:16:42.604Z,0.00
2018-08-16T01:18:35.537Z,0.00
2018-08-16T01:19:35.541Z,0.00
2018-08-16T01:21:28.460Z,0.00
2018-08-16T01:22:28.486Z,0.00
2018-08-16T01:24:21.422Z,0.00
2018-08-16T01:25:21.480Z,0.00
2018-08-16T01:27:14.362Z,0.00
2018-08-16T01:28:14.393Z,0.00
2018-08-16T01:30:07.305Z,0.00
2018-08-16T01:31:07.363Z,0.00
2018-08-16T01:33:00.264Z,0.00
2018-08-16T01:34:00.274Z,0.00
2018-08-16T01:35:53.364Z,0.00
2018-08-16T01:36:53.393Z,0.00
2018-08-16T01:38:46.325Z,0.00
2018-08-16T01:39:46.336Z,0.00
2018-08-16T01:41:39.241Z,0.00
2018-08-16T01:42:39.276Z,0.00
2018-08-16T01:44:32.200Z,0.00
2018-08-16T01:45:32.204Z,0.00
2018-08-16T01:47:25.149Z,0.00
2018-08-16T01:48:25.143Z,0.00
2018-08-16T01:50:18.089Z,0.00
2018-08-16T01:51:18.093Z,0.00
2018-08-16T01:53:11.054Z,0.00
2018-08-16T01:54:11.040Z,0.00
2018-08-16T01:56:03.948Z,0.00
2018-08-16T01:57:03.978Z,0.00
2018-08-16T01:58:56.911Z,0.00
2018-08-16T01:59:56.910Z,0.00
2018-08-16T02:01:49.830Z,0.00
2018-08-16T02:02:49.856Z,0.00
2018-08-16T02:04:42.786Z,0.00
2018-08-16T02:05:42.796Z,0.00
2018-08-16T02:07:35.704Z,0.00
2018-08-16T02:08:35.734Z,0.00
2018-08-16T02:10:28.676Z,0.00
2018-08-16T02:11:28.679Z,0.00
2018-08-16T02:13:21.689Z,0.00
2018-08-16T02:14:21.612Z,0.00
2018-08-16T02:16:14.526Z,0.00
2018-08-16T02:17:14.552Z,0.00
2018-08-16T02:19:07.488Z,0.00
2018-08-16T02:20:07.497Z,0.00
2018-08-16T02:22:00.406Z,0.00
2018-08-16T02:23:00.431Z,0.00
2018-08-16T02:24:53.363Z,0.00
2018-08-16T02:25:53.366Z,0.00
2018-08-16T02:27:46.283Z,0.00
2018-08-16T02:28:46.309Z,0.00
2018-08-16T02:30:39.239Z,0.00
2018-08-16T02:31:39.242Z,0.00
2018-08-16T02:33:32.211Z,0.00
2018-08-16T02:34:32.187Z,0.00
2018-08-16T02:36:25.100Z,0.00
2018-08-16T02:37:25.125Z,0.00
2018-08-16T02:39:18.060Z,0.00
2018-08-16T02:40:18.064Z,0.00
2018-08-16T02:42:10.976Z,0.00
2018-08-16T02:43:10.998Z,0.00
2018-08-16T02:45:04.932Z,0.00
2018-08-16T02:46:04.935Z,0.00
2018-08-16T02:47:57.847Z,0.00
2018-08-16T02:48:57.870Z,0.00
2018-08-16T02:50:51.054Z,0.00
2018-08-16T02:51:51.050Z,0.00
2018-08-16T02:53:43.982Z,0.00
2018-08-16T02:54:43.985Z,0.00
2018-08-16T02:56:36.896Z,0.00
2018-08-16T02:57:36.921Z,0.00
2018-08-16T02:59:29.853Z,0.00
2018-08-16T03:00:29.856Z,0.00
2018-08-16T03:02:22.774Z,0.00
2018-08-16T03:03:22.800Z,0.00
2018-08-16T03:05:15.738Z,0.00
2018-08-16T03:06:15.824Z,0.00
2018-08-16T03:08:08.648Z,0.00
2018-08-16T03:09:08.669Z,0.00
2018-08-16T03:11:01.603Z,0.00
2018-08-16T03:12:01.606Z,0.00
2018-08-16T03:13:54.539Z,0.00
2018-08-16T03:14:54.541Z,0.00
2018-08-16T03:16:47.454Z,0.00
2018-08-16T03:17:47.474Z,0.00
2018-08-16T03:19:40.411Z,0.00
2018-08-16T03:20:40.411Z,0.00
2018-08-16T03:22:33.323Z,0.00
2018-08-16T03:23:33.346Z,0.00
2018-08-16T03:25:26.279Z,0.00
2018-08-16T03:26:26.307Z,0.00
2018-08-16T03:28:19.194Z,0.00
2018-08-16T03:29:19.244Z,0.00
2018-08-16T03:31:12.154Z,0.00
2018-08-16T03:32:12.164Z,0.00
2018-08-16T03:34:05.084Z,0.00
2018-08-16T03:35:05.086Z,0.00
2018-08-16T03:36:58.016Z,0.00
2018-08-16T03:37:58.040Z,4.00
2018-08-16T03:39:50.971Z,4.00
2018-08-16T03:40:50.972Z,0.00
2018-08-16T03:42:43.884Z,4.00
2018-08-16T03:43:43.909Z,8.00
2018-08-16T03:45:36.855Z,8.00
2018-08-16T03:46:36.851Z,8.00
2018-08-16T03:48:29.762Z,12.00
2018-08-16T03:49:29.783Z,12.00
2018-08-16T03:51:22.716Z,16.00
2018-08-16T03:52:22.726Z,20.00
2018-08-16T03:54:15.654Z,24.00
2018-08-16T03:55:15.655Z,24.00
2018-08-16T03:57:08.568Z,36.00
2018-08-16T03:58:08.587Z,40.00
2018-08-16T04:00:01.523Z,48.00
2018-08-16T04:01:01.525Z,56.00
2018-08-16T04:02:54.467Z,64.00
2018-08-16T04:03:54.498Z,76.00
2018-08-16T04:05:47.440Z,88.00
2018-08-16T04:06:47.423Z,100.00
2018-08-16T04:08:40.336Z,124.00
2018-08-16T04:09:40.356Z,132.00
2018-08-16T04:11:33.287Z,160.00
2018-08-16T04:12:33.289Z,176.00
2018-08-16T04:14:26.218Z,204.00
2018-08-16T04:15:26.223Z,220.00
2018-08-16T04:17:19.134Z,252.00
2018-08-16T04:18:19.155Z,272.00
2018-08-16T04:20:12.101Z,312.00
2018-08-16T04:21:12.090Z,332.00
2018-08-16T04:23:05.007Z,372.00
2018-08-16T04:24:05.026Z,396.00
2018-08-16T04:25:57.957Z,448.00
2018-08-16T04:26:57.958Z,476.00
2018-08-16T04:28:50.870Z,536.00
2018-08-16T04:29:50.892Z,572.00
2018-08-16T04:31:43.822Z,640.00
2018-08-16T04:32:43.823Z,672.00
2018-08-16T04:34:36.773Z,744.00
2018-08-16T04:35:36.763Z,780.00
2018-08-16T04:37:29.678Z,864.00
2018-08-16T04:38:29.697Z,904.00
2018-08-16T04:40:22.631Z,988.00
2018-08-16T04:41:22.633Z,1036.00
2018-08-16T04:43:15.545Z,1132.00
2018-08-16T04:44:15.598Z,1192.00
2018-08-16T04:46:08.501Z,1316.00
2018-08-16T04:47:08.504Z,1392.00
2018-08-16T04:49:01.414Z,1548.00
2018-08-16T04:50:01.438Z,1628.00
2018-08-16T04:51:54.369Z,1760.00
2018-08-16T04:52:54.371Z,1828.00
2018-08-16T04:54:47.283Z,1948.00
2018-08-16T04:55:47.309Z,2016.00
2018-08-16T04:57:40.237Z,2132.00
2018-08-16T04:58:40.240Z,2188.00
2018-08-16T05:00:33.171Z,2300.00
2018-08-16T05:01:33.176Z,2384.00
2018-08-16T05:03:26.087Z,2524.00
2018-08-16T05:04:26.113Z,2624.00
2018-08-16T05:06:19.044Z,2656.00
2018-08-16T05:07:19.046Z,2712.00
2018-08-16T05:09:11.961Z,2792.00
2018-08-16T05:10:11.980Z,2840.00
2018-08-16T05:12:04.916Z,2928.00
2018-08-16T05:13:04.915Z,2968.00
2018-08-16T05:14:57.966Z,3056.00
2018-08-16T05:15:57.991Z,3100.00
2018-08-16T05:17:50.924Z,3184.00
2018-08-16T05:18:50.927Z,3220.00
2018-08-16T05:20:43.839Z,3320.00
2018-08-16T05:21:43.897Z,3360.00
2018-08-16T05:23:36.796Z,3472.00
2018-08-16T05:24:36.798Z,3496.00
2018-08-16T05:26:29.735Z,3620.00
2018-08-16T05:27:29.742Z,3648.00
2018-08-16T05:29:22.650Z,4136.00
2018-08-16T05:30:22.673Z,3840.00
2018-08-16T05:32:15.609Z,3800.00
2018-08-16T05:33:15.618Z,3832.00
2018-08-16T05:35:08.526Z,3896.00
2018-08-16T05:36:08.551Z,3932.00
2018-08-16T05:38:01.483Z,3996.00
2018-08-16T05:39:01.486Z,4028.00
2018-08-16T05:40:54.401Z,4108.00
2018-08-16T05:41:54.424Z,4256.00
2018-08-16T05:43:47.358Z,4424.00
2018-08-16T05:44:47.365Z,4308.00
2018-08-16T05:46:40.277Z,4276.00
2018-08-16T05:47:40.305Z,4296.00
2018-08-16T05:49:33.233Z,4348.00
2018-08-16T05:50:33.236Z,4360.00
2018-08-16T05:52:26.180Z,4408.00
2018-08-16T05:53:26.181Z,4440.00
2018-08-16T05:55:19.098Z,4444.00
2018-08-16T05:56:19.118Z,4476.00
2018-08-16T05:58:12.052Z,4516.00
2018-08-16T05:59:12.060Z,4556.00
2018-08-16T06:01:04.973Z,4636.00
2018-08-16T06:02:04.999Z,4680.00
2018-08-16T06:03:57.931Z,4984.00
2018-08-16T06:04:57.940Z,5296.00
2018-08-16T06:06:53.251Z,6844.00
2018-08-16T06:07:51.857Z,10136.00
2018-08-16T06:09:44.822Z,14116.00
2018-08-16T06:10:44.909Z,14136.00
2018-08-16T06:12:37.726Z,14912.00
2018-08-16T06:13:37.758Z,15360.00
2018-08-16T06:15:30.772Z,15936.00
2018-08-16T06:16:30.698Z,16160.00
2018-08-16T06:18:23.634Z,15296.00
2018-08-16T06:19:23.640Z,15456.00
2018-08-16T06:21:17.564Z,17024.00
2018-08-16T06:22:17.592Z,17216.00
2018-08-16T06:24:10.545Z,18144.00
2018-08-16T06:25:10.540Z,18464.00
2018-08-16T06:27:03.459Z,18272.00
2018-08-16T06:28:03.492Z,18368.00
2018-08-16T06:29:56.429Z,18816.00
2018-08-16T06:30:56.440Z,18656.00
2018-08-16T06:32:49.388Z,18656.00
2018-08-16T06:33:49.389Z,18976.00
2018-08-16T06:35:42.339Z,19424.00
2018-08-16T06:36:42.342Z,19616.00
2018-08-16T06:38:35.288Z,19616.00
2018-08-16T06:39:35.297Z,20000.00
2018-08-16T06:41:28.223Z,19936.00
2018-08-16T06:42:28.251Z,19904.00
2018-08-16T06:44:21.199Z,20320.00
2018-08-16T06:45:21.214Z,20864.00
2018-08-16T06:47:14.136Z,21792.00
2018-08-16T06:48:14.167Z,21504.00
2018-08-16T06:50:07.123Z,21856.00
2018-08-16T06:51:07.122Z,22944.00
2018-08-16T06:53:00.053Z,22304.00
2018-08-16T06:54:00.081Z,23264.00
2018-08-16T06:55:53.038Z,23808.00
2018-08-16T06:56:53.041Z,24000.00
2018-08-16T06:58:45.996Z,23744.00
2018-08-16T06:59:46.001Z,23808.00
2018-08-16T07:01:38.931Z,24448.00
2018-08-16T07:02:38.961Z,23616.00
2018-08-16T07:04:31.915Z,23776.00
2018-08-16T07:05:31.922Z,18464.00
2018-08-16T07:07:24.852Z,6668.00
2018-08-16T07:08:24.886Z,6172.00
2018-08-16T07:10:17.836Z,5968.00
2018-08-16T07:11:17.883Z,5940.00
2018-08-16T07:13:10.773Z,5956.00
2018-08-16T07:14:10.808Z,5948.00
2018-08-16T07:16:03.752Z,5944.00
2018-08-16T07:17:03.767Z,5884.00
2018-08-16T07:18:56.708Z,5840.00
2018-08-16T07:19:56.717Z,5844.00
2018-08-16T07:21:49.643Z,5936.00
2018-08-16T07:22:49.673Z,5900.00
2018-08-16T07:24:42.665Z,5916.00
2018-08-16T07:25:42.625Z,5904.00
2018-08-16T07:27:35.551Z,5828.00
2018-08-16T07:28:35.578Z,5856.00
2018-08-16T07:30:28.523Z,5800.00
2018-08-16T07:31:28.536Z,5692.00
2018-08-16T07:33:21.454Z,5696.00
2018-08-16T07:34:21.486Z,5704.00
2018-08-16T07:36:14.427Z,5596.00
2018-08-16T07:37:14.435Z,5532.00
2018-08-16T07:39:07.374Z,5496.00
2018-08-16T07:40:07.423Z,5520.00
2018-08-16T07:42:00.303Z,5544.00
2018-08-16T07:43:00.332Z,5676.00
2018-08-16T07:44:53.282Z,5572.00
2018-08-16T07:45:53.495Z,5460.00
2018-08-16T07:47:46.203Z,5452.00
2018-08-16T07:48:46.234Z,5396.00
2018-08-16T07:50:39.183Z,5260.00
2018-08-16T07:51:39.388Z,5340.00
2018-08-16T07:53:32.113Z,5612.00
2018-08-16T07:54:32.137Z,5552.00
2018-08-16T07:56:25.083Z,5380.00
2018-08-16T07:57:25.086Z,5300.00
2018-08-16T07:59:18.030Z,5328.00
2018-08-16T08:00:18.037Z,5336.00
2018-08-16T08:02:10.962Z,5252.00
2018-08-16T08:03:10.987Z,5240.00
2018-08-16T08:05:03.942Z,5080.00
2018-08-16T08:06:03.938Z,5452.00
2018-08-16T08:07:56.859Z,5400.00
2018-08-16T08:08:56.986Z,5416.00
2018-08-16T08:10:49.843Z,5444.00
2018-08-16T08:11:49.863Z,5520.00
2018-08-16T08:13:42.768Z,5460.00
2018-08-16T08:14:42.796Z,5372.00
2018-08-16T08:16:35.746Z,5312.00
2018-08-16T08:17:35.750Z,5216.00
2018-08-16T08:19:28.720Z,5324.00
2018-08-16T08:20:28.703Z,5360.00
2018-08-16T08:22:21.627Z,5324.00
2018-08-16T08:23:21.654Z,5264.00
2018-08-16T08:25:14.653Z,5340.00
2018-08-16T08:26:14.606Z,5328.00
2018-08-16T08:28:07.528Z,5524.00
2018-08-16T08:29:07.555Z,5664.00
2018-08-16T08:31:00.503Z,5604.00
2018-08-16T08:32:00.507Z,5596.00
2018-08-16T08:33:53.427Z,5604.00
2018-08-16T08:34:53.495Z,5560.00
2018-08-16T08:36:46.397Z,6220.00
2018-08-16T08:37:46.403Z,6456.00
2018-08-16T08:39:39.344Z,5516.00
2018-08-16T08:40:39.351Z,5460.00
2018-08-16T08:42:32.276Z,6272.00
2018-08-16T08:43:32.324Z,6436.00
2018-08-16T08:45:25.241Z,7924.00
2018-08-16T08:46:25.253Z,7800.00
2018-08-16T08:48:18.171Z,6048.00
2018-08-16T08:49:18.197Z,5548.00
2018-08-16T08:51:11.140Z,5908.00
2018-08-16T08:52:11.148Z,6304.00
2018-08-16T08:54:04.073Z,6540.00
2018-08-16T08:55:04.100Z,5980.00
2018-08-16T08:56:57.083Z,5528.00
2018-08-16T08:57:57.051Z,5312.00
2018-08-16T08:59:49.990Z,5464.00
2018-08-16T09:00:49.999Z,5356.00
2018-08-16T09:02:42.922Z,5300.00
2018-08-16T09:03:42.950Z,5736.00
2018-08-16T09:05:35.895Z,5620.00
2018-08-16T09:06:35.903Z,5260.00
2018-08-16T09:08:28.829Z,4748.00
2018-08-16T09:09:28.890Z,5424.00
2018-08-16T09:11:21.803Z,5660.00
2018-08-16T09:12:21.810Z,5488.00
2018-08-16T09:14:14.729Z,5884.00
2018-08-16T09:15:14.764Z,5304.00
2018-08-16T09:17:07.714Z,4792.00
2018-08-16T09:18:07.710Z,4704.00
2018-08-16T09:20:00.637Z,4728.00
2018-08-16T09:21:00.666Z,5148.00
2018-08-16T09:22:53.613Z,4332.00
2018-08-16T09:23:53.656Z,4580.00
2018-08-16T09:25:46.546Z,4980.00
2018-08-16T09:26:46.572Z,4724.00
2018-08-16T09:28:39.520Z,4780.00
2018-08-16T09:29:39.528Z,4824.00
2018-08-16T09:31:32.508Z,4720.00
2018-08-16T09:32:32.486Z,4424.00
2018-08-16T09:34:25.408Z,4408.00
2018-08-16T09:35:25.439Z,4556.00
2018-08-16T09:37:18.378Z,4744.00
2018-08-16T09:38:18.385Z,4916.00
2018-08-16T09:40:11.310Z,5388.00
2018-08-16T09:41:11.339Z,5180.00
2018-08-16T09:43:04.281Z,4764.00
2018-08-16T09:44:04.289Z,4800.00
2018-08-16T09:45:57.210Z,4976.00
2018-08-16T09:46:57.238Z,5048.00
2018-08-16T09:48:50.182Z,5084.00
2018-08-16T09:49:50.191Z,4968.00
2018-08-16T09:51:43.191Z,4920.00
2018-08-16T09:52:43.140Z,5016.00
2018-08-16T09:54:36.085Z,4844.00
2018-08-16T09:55:36.095Z,4948.00
2018-08-16T09:57:29.044Z,4920.00
2018-08-16T09:58:29.049Z,5004.00
2018-08-16T10:00:21.974Z,5060.00
2018-08-16T10:01:22.001Z,4956.00
2018-08-16T10:03:14.951Z,5024.00
2018-08-16T10:04:14.957Z,4940.00
2018-08-16T10:06:07.884Z,4920.00
2018-08-16T10:07:07.909Z,4804.00
2018-08-16T10:09:01.360Z,4772.00
2018-08-16T10:10:01.365Z,5012.00
2018-08-16T10:11:54.290Z,5128.00
2018-08-16T10:12:54.321Z,5124.00
2018-08-16T10:14:47.268Z,4968.00
2018-08-16T10:15:47.276Z,4928.00
2018-08-16T10:17:40.220Z,4900.00
2018-08-16T10:18:40.230Z,4792.00
2018-08-16T10:20:33.153Z,4800.00
2018-08-16T10:21:33.181Z,4908.00
2018-08-16T10:23:26.136Z,5052.00
2018-08-16T10:24:26.136Z,4976.00
2018-08-16T10:26:19.057Z,4880.00
2018-08-16T10:27:19.089Z,4752.00
2018-08-16T10:29:12.037Z,4476.00
2018-08-16T10:30:12.037Z,4520.00
2018-08-16T10:32:05.099Z,4632.00
2018-08-16T10:33:05.131Z,4612.00
2018-08-16T10:34:58.078Z,4496.00
2018-08-16T10:35:58.085Z,4528.00
2018-08-16T10:37:51.033Z,4432.00
2018-08-16T10:38:51.039Z,4532.00
2018-08-16T10:40:43.974Z,4800.00
2018-08-16T10:41:43.997Z,4740.00
2018-08-16T10:43:36.949Z,5220.00
2018-08-16T10:44:37.032Z,5156.00
2018-08-16T10:46:29.882Z,4960.00
2018-08-16T10:47:29.911Z,4924.00
2018-08-16T10:49:22.856Z,4920.00
2018-08-16T10:50:22.864Z,4948.00
2018-08-16T10:52:15.790Z,5104.00
2018-08-16T10:53:15.819Z,5108.00
2018-08-16T10:55:08.769Z,5092.00
2018-08-16T10:56:08.774Z,5088.00
2018-08-16T10:58:01.897Z,5052.00
2018-08-16T10:59:01.907Z,5040.00
2018-08-16T11:00:54.830Z,4988.00
2018-08-16T11:01:54.861Z,5036.00
2018-08-16T11:03:47.811Z,5088.00
2018-08-16T11:04:47.817Z,5036.00
2018-08-16T11:06:40.744Z,4940.00
2018-08-16T11:07:40.801Z,4880.00
2018-08-16T11:09:33.724Z,4728.00
2018-08-16T11:10:33.756Z,4648.00
2018-08-16T11:12:26.652Z,4736.00
2018-08-16T11:13:26.686Z,4832.00
2018-08-16T11:15:19.646Z,4860.00
2018-08-16T11:16:19.645Z,4832.00
2018-08-16T11:18:12.586Z,4580.00
2018-08-16T11:19:12.593Z,4576.00
2018-08-16T11:21:05.523Z,4500.00
2018-08-16T11:22:05.552Z,4624.00
2018-08-16T11:23:58.577Z,4744.00
2018-08-16T11:24:58.552Z,4604.00
2018-08-16T11:26:51.434Z,4620.00
2018-08-16T11:27:51.463Z,4656.00
2018-08-16T11:29:44.415Z,4528.00
2018-08-16T11:30:44.418Z,4372.00
2018-08-16T11:32:37.343Z,4240.00
2018-08-16T11:33:37.371Z,4188.00
2018-08-16T11:35:30.323Z,4096.00
2018-08-16T11:36:30.324Z,4032.00
2018-08-16T11:38:23.283Z,4004.00
2018-08-16T11:39:23.279Z,4004.00
2018-08-16T11:41:16.202Z,3952.00
2018-08-16T11:42:16.232Z,3920.00
2018-08-16T11:44:09.180Z,3888.00
2018-08-16T11:45:09.184Z,3824.00
2018-08-16T11:47:02.110Z,3864.00
2018-08-16T11:48:02.138Z,3972.00
2018-08-16T11:49:55.090Z,3936.00
2018-08-16T11:50:55.143Z,3880.00
2018-08-16T11:52:48.017Z,3804.00
2018-08-16T11:53:48.054Z,3812.00
2018-08-16T11:55:40.997Z,3700.00
2018-08-16T11:56:41.003Z,3692.00
2018-08-16T11:58:33.930Z,3620.00
2018-08-16T11:59:33.959Z,3620.00
2018-08-16T12:01:26.900Z,3556.00
2018-08-16T12:02:26.909Z,3476.00
2018-08-16T12:04:19.860Z,3392.00
2018-08-16T12:05:19.868Z,3540.00
2018-08-16T12:07:12.791Z,3556.00
2018-08-16T12:08:12.819Z,3540.00
2018-08-16T12:10:05.823Z,3580.00
2018-08-16T12:11:05.773Z,3608.00
2018-08-16T12:12:58.697Z,3616.00
2018-08-16T12:13:58.727Z,3588.00
2018-08-16T12:15:51.672Z,3652.00
2018-08-16T12:16:51.681Z,3680.00
2018-08-16T12:18:44.733Z,3728.00
2018-08-16T12:19:44.635Z,3752.00
2018-08-16T12:21:37.584Z,3768.00
2018-08-16T12:22:37.587Z,3784.00
2018-08-16T12:24:30.540Z,3872.00
2018-08-16T12:25:30.543Z,3900.00
2018-08-16T12:27:23.472Z,3852.00
2018-08-16T12:28:23.508Z,3832.00
2018-08-16T12:30:16.444Z,3856.00
2018-08-16T12:31:16.453Z,3840.00
2018-08-16T12:33:09.380Z,3768.00
2018-08-16T12:34:09.411Z,3728.00
2018-08-16T12:36:02.355Z,3704.00
2018-08-16T12:37:02.363Z,3504.00
2018-08-16T12:38:55.289Z,3536.00
2018-08-16T12:39:55.319Z,3624.00
2018-08-16T12:41:48.264Z,3716.00
2018-08-16T12:42:48.331Z,3780.00
2018-08-16T12:44:41.225Z,3860.00
2018-08-16T12:45:41.232Z,3884.00
2018-08-16T12:47:34.175Z,3816.00
2018-08-16T12:48:34.185Z,3868.00
2018-08-16T12:50:27.136Z,3968.00
2018-08-16T12:51:27.140Z,4016.00
2018-08-16T12:53:20.069Z,4120.00
2018-08-16T12:54:20.095Z,4248.00
2018-08-16T12:56:13.041Z,4392.00
2018-08-16T12:57:13.049Z,4356.00
2018-08-16T12:59:05.979Z,4396.00
2018-08-16T13:00:06.006Z,4400.00
2018-08-16T13:01:59.031Z,4348.00
2018-08-16T13:02:58.962Z,4304.00
2018-08-16T13:04:51.914Z,4284.00
2018-08-16T13:05:51.918Z,4356.00
2018-08-16T13:07:44.844Z,4544.00
2018-08-16T13:08:44.898Z,4636.00
2018-08-16T13:10:37.824Z,4716.00
2018-08-16T13:11:37.838Z,4648.00
2018-08-16T13:13:30.755Z,4568.00
2018-08-16T13:14:30.784Z,4540.00
2018-08-16T13:16:23.781Z,4600.00
2018-08-16T13:17:23.742Z,4684.00
2018-08-16T13:19:16.665Z,4720.00
2018-08-16T13:20:16.698Z,4768.00
2018-08-16T13:22:09.648Z,4784.00
2018-08-16T13:23:09.654Z,4848.00
2018-08-16T13:25:02.607Z,4980.00
2018-08-16T13:26:02.609Z,5064.00
2018-08-16T13:27:55.537Z,5188.00
2018-08-16T13:28:55.565Z,5248.00
2018-08-16T13:30:48.520Z,5380.00
2018-08-16T13:31:48.523Z,5424.00
2018-08-16T13:33:41.448Z,5396.00
2018-08-16T13:34:41.479Z,5344.00
2018-08-16T13:36:34.431Z,5220.00
2018-08-16T13:37:34.436Z,5108.00
2018-08-16T13:39:27.363Z,4944.00
2018-08-16T13:40:27.393Z,4876.00
2018-08-16T13:42:20.406Z,4888.00
2018-08-16T13:43:20.351Z,4908.00
2018-08-16T13:45:13.303Z,4920.00
2018-08-16T13:46:13.310Z,4896.00
2018-08-16T13:48:06.243Z,4820.00
2018-08-16T13:49:06.274Z,4772.00
2018-08-16T13:50:59.224Z,4652.00
2018-08-16T13:51:59.233Z,4636.00
2018-08-16T13:53:52.159Z,4736.00
2018-08-16T13:54:52.205Z,4756.00
2018-08-16T13:56:45.136Z,4868.00
2018-08-16T13:57:45.146Z,4924.00
2018-08-16T13:59:38.076Z,5052.00
2018-08-16T14:00:38.152Z,5160.00
2018-08-16T14:02:31.058Z,5368.00
2018-08-16T14:03:31.064Z,5440.00
2018-08-16T14:05:24.016Z,5608.00
2018-08-16T14:06:24.025Z,5728.00
2018-08-16T14:08:16.954Z,5864.00
2018-08-16T14:09:16.979Z,5908.00
2018-08-16T14:11:09.925Z,6008.00
2018-08-16T14:12:09.937Z,5996.00
2018-08-16T14:14:02.868Z,5936.00
2018-08-16T14:15:02.899Z,5892.00
2018-08-16T14:16:55.852Z,5732.00
2018-08-16T14:17:55.857Z,5684.00
2018-08-16T14:19:48.786Z,5596.00
2018-08-16T14:20:48.813Z,5616.00
2018-08-16T14:22:41.767Z,5704.00
2018-08-16T14:23:41.776Z,5692.00
2018-08-16T14:25:34.726Z,5676.00
2018-08-16T14:26:34.734Z,5668.00
2018-08-16T14:28:27.663Z,5600.00
2018-08-16T14:29:27.693Z,5576.00
2018-08-16T14:31:20.645Z,5532.00
2018-08-16T14:32:20.687Z,5532.00
2018-08-16T14:34:13.741Z,5452.00
2018-08-16T14:35:13.772Z,5340.00
2018-08-16T14:37:06.725Z,5112.00
2018-08-16T14:38:06.734Z,5096.00
2018-08-16T14:39:59.658Z,5140.00
2018-08-16T14:40:59.689Z,5224.00
2018-08-16T14:42:52.642Z,5296.00
2018-08-16T14:43:52.647Z,5268.00
2018-08-16T14:45:45.605Z,5192.00
2018-08-16T14:46:45.609Z,5184.00
2018-08-16T14:48:38.531Z,5188.00
2018-08-16T14:49:38.562Z,5160.00
2018-08-16T14:51:31.558Z,5128.00
2018-08-16T14:52:31.523Z,5124.00
2018-08-16T14:54:24.451Z,5148.00
2018-08-16T14:55:24.480Z,5144.00
2018-08-16T14:57:17.433Z,5164.00
2018-08-16T14:58:17.439Z,5220.00
2018-08-16T15:00:10.365Z,5252.00
2018-08-16T15:01:10.396Z,5284.00
2018-08-16T15:03:03.341Z,5416.00
2018-08-16T15:04:03.352Z,5436.00
2018-08-16T15:05:56.306Z,5428.00
2018-08-16T15:06:56.313Z,5396.00
2018-08-16T15:08:49.245Z,5448.00
2018-08-16T15:09:49.276Z,5496.00
2018-08-16T15:11:43.219Z,5568.00
2018-08-16T15:12:43.229Z,5560.00
2018-08-16T15:14:36.160Z,5468.00
2018-08-16T15:15:36.187Z,5392.00
2018-08-16T15:17:29.146Z,5372.00
2018-08-16T15:18:29.145Z,5344.00
2018-08-16T15:20:23.080Z,5348.00
2018-08-16T15:21:23.102Z,5296.00
2018-08-16T15:23:16.062Z,5124.00
2018-08-16T15:24:16.062Z,5008.00
2018-08-16T15:26:09.013Z,4852.00
2018-08-16T15:27:09.018Z,4796.00
2018-08-16T15:29:01.946Z,4776.00
2018-08-16T15:30:01.978Z,4788.00
2018-08-16T15:31:54.930Z,4796.00
2018-08-16T15:32:54.934Z,4804.00
2018-08-16T15:34:47.871Z,4760.00
2018-08-16T15:35:47.902Z,4708.00
2018-08-16T15:37:40.857Z,4724.00
2018-08-16T15:38:40.862Z,4728.00
2018-08-16T15:40:33.789Z,4820.00
2018-08-16T15:41:33.821Z,4888.00
2018-08-16T15:43:26.773Z,4996.00
2018-08-16T15:44:26.781Z,5024.00
2018-08-16T15:46:19.730Z,4968.00
2018-08-16T15:47:19.738Z,4944.00
2018-08-16T15:49:12.670Z,4960.00
2018-08-16T15:50:12.698Z,4992.00
2018-08-16T15:52:05.644Z,5048.00
2018-08-16T15:53:05.654Z,5072.00
2018-08-16T15:54:58.588Z,5108.00
2018-08-16T15:55:58.612Z,5116.00
2018-08-16T15:57:51.564Z,4984.00
2018-08-16T15:58:51.568Z,4972.00
2018-08-16T16:00:44.717Z,4916.00
2018-08-16T16:01:44.748Z,4868.00
2018-08-16T16:03:37.700Z,4840.00
2018-08-16T16:04:37.706Z,4892.00
2018-08-16T16:06:30.839Z,4856.00
2018-08-16T16:07:30.660Z,4804.00
2018-08-16T16:09:24.083Z,4816.00
2018-08-16T16:10:24.109Z,4812.00
2018-08-16T16:12:17.267Z,4828.00
2018-08-16T16:13:17.277Z,4812.00
2018-08-16T16:15:11.202Z,4636.00
2018-08-16T16:16:11.231Z,4544.00
2018-08-16T16:18:04.188Z,4384.00
2018-08-16T16:19:04.187Z,4268.00
2018-08-16T16:20:57.119Z,4024.00
2018-08-16T16:21:57.150Z,3916.00
2018-08-16T16:23:50.095Z,3816.00
2018-08-16T16:24:50.172Z,3784.00
2018-08-16T16:26:43.057Z,3680.00
2018-08-16T16:27:43.060Z,3628.00
2018-08-16T16:29:36.201Z,3484.00
2018-08-16T16:30:36.236Z,3376.00
2018-08-16T16:32:29.185Z,3300.00
2018-08-16T16:33:29.192Z,3292.00
2018-08-16T16:35:22.119Z,3300.00
2018-08-16T16:36:22.149Z,3324.00
2018-08-16T16:38:15.145Z,3340.00
2018-08-16T16:39:15.110Z,3332.00
2018-08-16T16:41:08.034Z,3248.00
2018-08-16T16:42:08.066Z,3240.00
2018-08-16T16:44:01.014Z,3220.00
2018-08-16T16:45:01.080Z,3244.00
2018-08-16T16:46:54.966Z,3312.00
2018-08-16T16:47:54.972Z,3324.00
2018-08-16T16:49:47.948Z,3340.00
2018-08-16T16:50:47.926Z,3360.00
2018-08-16T16:52:40.879Z,3396.00
2018-08-16T16:53:40.928Z,3408.00
2018-08-16T16:55:33.818Z,3412.00
2018-08-16T16:56:33.844Z,3408.00
2018-08-16T16:58:26.850Z,3320.00
2018-08-16T16:59:26.801Z,3256.00
2018-08-16T17:01:19.727Z,3152.00
2018-08-16T17:02:19.753Z,3096.00
2018-08-16T17:04:12.797Z,3008.00
2018-08-16T17:05:12.710Z,2956.00
2018-08-16T17:07:05.653Z,2864.00
2018-08-16T17:08:05.662Z,2768.00
2018-08-16T17:09:58.592Z,2580.00
2018-08-16T17:10:58.618Z,2580.00
2018-08-16T17:12:51.569Z,2548.00
2018-08-16T17:13:51.574Z,2512.00
2018-08-16T17:15:44.499Z,2440.00
2018-08-16T17:16:44.527Z,2412.00
2018-08-16T17:18:37.481Z,2372.00
2018-08-16T17:19:37.491Z,2352.00
2018-08-16T17:21:30.416Z,2300.00
2018-08-16T17:22:30.445Z,2272.00
2018-08-16T17:24:23.394Z,2256.00
2018-08-16T17:25:23.399Z,2264.00
2018-08-16T17:27:16.357Z,2244.00
2018-08-16T17:28:16.354Z,2244.00
2018-08-16T17:30:09.464Z,2228.00
2018-08-16T17:31:09.494Z,2152.00
2018-08-16T17:33:02.437Z,2044.00
2018-08-16T17:34:02.445Z,2016.00
2018-08-16T17:35:55.373Z,2028.00
2018-08-16T17:36:55.509Z,1996.00
2018-08-16T17:38:48.362Z,1872.00
2018-08-16T17:39:48.369Z,1816.00
2018-08-16T17:41:41.297Z,1692.00
2018-08-16T17:42:41.322Z,1628.00
2018-08-16T17:44:34.275Z,1532.00
2018-08-16T17:45:34.276Z,1488.00
2018-08-16T17:47:27.223Z,1396.00